Time;durP1;ratioP1;P1;durP2;ratioP2;P2;SDS_P1;SDS_P2;PMS_P1;PMS_P2;Temp;Humidity;BMP_temperature;BMP_pressure;BME280_temperature;BME280_humidity;BME280_pressure;Samples;Min_cycle;Max_cycle;Signal;HPM_P1;HPM_P2
2023/04/17 00:01:31;;;;;;;27.48;15.30;;;;;;;9.84;83.08;98730.59;7381176;19;19922;-74
2023/04/17 00:03:57;;;;;;;27.20;14.73;;;;;;;9.81;83.26;98722.97;7389110;19;19919;-74
2023/04/17 00:06:25;;;;;;;27.13;15.73;;;;;;;9.81;83.23;98720.34;7383391;19;19919;-74
2023/04/17 00:08:52;;;;;;;26.38;16.23;;;;;;;9.78;83.38;98721.44;7385030;19;19915;-74
2023/04/17 00:11:20;;;;;;;25.75;15.50;;;;;;;9.71;83.63;98720.34;7384184;19;19918;-74
2023/04/17 00:13:46;;;;;;;26.27;14.85;;;;;;;9.74;83.72;98729.78;7383954;19;19930;-74
2023/04/17 00:16:13;;;;;;;27.73;16.90;;;;;;;9.74;83.55;98728.00;7380176;19;20253;-74
2023/04/17 00:18:40;;;;;;;28.58;15.68;;;;;;;9.79;83.52;98723.09;7388069;19;19929;-74
2023/04/17 00:21:07;;;;;;;22.63;14.82;;;;;;;9.80;83.38;98723.97;7384556;19;19919;-74
2023/04/17 00:23:33;;;;;;;25.23;13.68;;;;;;;9.81;83.50;98721.16;7379436;19;20368;-74
2023/04/17 00:26:00;;;;;;;22.40;14.20;;;;;;;9.79;83.24;98715.19;7388744;19;20002;-74
2023/04/17 00:28:27;;;;;;;26.80;14.10;;;;;;;9.81;83.23;98713.22;7382916;19;19918;-74
2023/04/17 00:30:54;;;;;;;23.88;14.50;;;;;;;9.80;83.47;98718.69;7381162;19;19947;-75
2023/04/17 00:33:20;;;;;;;24.35;14.05;;;;;;;9.82;83.31;98716.69;7383093;19;20413;-74
2023/04/17 00:35:47;;;;;;;25.17;15.65;;;;;;;9.81;83.23;98707.13;7386479;19;19915;-74
2023/04/17 00:38:14;;;;;;;25.55;14.93;;;;;;;9.80;83.26;98708.09;7383480;19;19923;-74
2023/04/17 00:40:41;;;;;;;24.75;13.98;;;;;;;9.75;83.25;98711.16;7383542;19;19970;-74
2023/04/17 00:43:08;;;;;;;28.17;18.05;;;;;;;9.75;83.45;98705.06;7383814;19;19933;-74
2023/04/17 00:45:35;;;;;;;24.35;13.48;;;;;;;9.79;83.20;98698.50;7381802;19;19922;-74
2023/04/17 00:48:03;;;;;;;26.83;15.25;;;;;;;9.79;83.25;98695.84;7386660;19;19929;-74
2023/04/17 00:50:30;;;;;;;24.30;13.90;;;;;;;9.79;83.35;98698.50;7380853;19;19918;-74
2023/04/17 00:52:58;;;;;;;27.92;14.73;;;;;;;9.74;83.35;98700.72;7382910;19;20015;-74
2023/04/17 00:55:26;;;;;;;23.33;14.55;;;;;;;9.72;83.46;98692.13;7382665;19;19926;-73
2023/04/17 00:57:54;;;;;;;29.33;14.98;;;;;;;9.71;83.23;98693.09;7380765;19;19947;-74
2023/04/17 01:00:21;;;;;;;26.58;14.52;;;;;;;9.71;83.54;98695.72;7380181;19;19926;-74
2023/04/17 01:02:48;;;;;;;24.17;14.35;;;;;;;9.71;83.32;98693.09;7380287;19;19918;-74
2023/04/17 01:05:14;;;;;;;24.80;14.10;;;;;;;9.71;83.57;98691.28;7385536;19;19966;-74
2023/04/17 01:07:41;;;;;;;25.75;15.85;;;;;;;9.71;83.47;98693.09;7381260;19;19914;-74
2023/04/17 01:10:08;;;;;;;26.77;14.40;;;;;;;9.70;83.32;98689.63;7384685;19;19934;-74
2023/04/17 01:12:35;;;;;;;31.10;15.75;;;;;;;9.70;83.32;98692.25;7375736;19;19939;-74
2023/04/17 01:15:02;;;;;;;22.90;12.98;;;;;;;9.70;83.34;98686.16;7382757;19;19914;-74
2023/04/17 01:17:30;;;;;;;28.67;15.43;;;;;;;9.67;83.24;98693.38;7379756;19;19938;-74
2023/04/17 01:19:57;;;;;;;23.33;15.15;;;;;;;9.67;83.19;98688.09;7382094;19;19915;-74
2023/04/17 01:22:24;;;;;;;26.15;13.57;;;;;;;9.68;83.10;98684.47;7380338;19;19918;-74
2023/04/17 01:24:55;;;;;;;27.17;16.98;;;;;;;9.66;83.12;98680.31;7383423;19;20279;-74
2023/04/17 01:27:24;;;;;;;25.98;14.25;;;;;;;9.66;83.00;98683.81;7375405;19;19982;-74
2023/04/17 01:29:51;;;;;;;25.92;14.98;;;;;;;9.64;83.23;98684.91;7380195;19;19926;-74
2023/04/17 01:32:18;;;;;;;20.23;12.85;;;;;;;9.63;83.10;98689.34;7380478;19;19919;-74
2023/04/17 01:34:45;;;;;;;23.17;13.32;;;;;;;9.62;83.00;98694.78;7379796;19;19959;-74
2023/04/17 01:37:12;;;;;;;23.10;14.05;;;;;;;9.63;83.07;98681.41;7382388;19;19925;-74
2023/04/17 01:39:39;;;;;;;21.63;13.05;;;;;;;9.64;83.15;98685.75;7384789;19;19918;-74
2023/04/17 01:42:06;;;;;;;24.40;14.77;;;;;;;9.62;83.11;98690.34;7388249;19;19988;-74
2023/04/17 01:44:33;;;;;;;27.23;13.32;;;;;;;9.59;82.86;98684.50;7388907;19;19918;-74
2023/04/17 01:47:00;;;;;;;30.17;16.45;;;;;;;9.60;82.97;98688.81;7386434;19;19947;-74
2023/04/17 01:49:27;;;;;;;28.20;16.40;;;;;;;9.56;83.14;98690.09;7385261;19;19923;-74
2023/04/17 01:51:54;;;;;;;25.67;14.30;;;;;;;9.55;83.13;98693.69;7385138;19;19918;-74
2023/04/17 01:54:21;;;;;;;26.08;16.73;;;;;;;9.54;83.21;98689.38;7387079;19;20720;-74
2023/04/17 01:56:48;;;;;;;31.55;18.30;;;;;;;9.46;83.23;98684.81;7385304;19;20269;-73
2023/04/17 01:59:14;;;;;;;25.60;14.02;;;;;;;9.42;83.32;98683.41;7390151;19;19911;-73
2023/04/17 02:01:41;;;;;;;23.38;14.82;;;;;;;9.48;83.22;98685.50;7380157;19;20016;-73
2023/04/17 02:04:08;;;;;;;24.75;14.50;;;;;;;9.49;83.40;98687.16;7386162;19;19930;-74
2023/04/17 02:06:35;;;;;;;28.15;15.25;;;;;;;9.47;83.19;98691.75;7383979;19;19918;-74
2023/04/17 02:09:02;;;;;;;28.77;15.60;;;;;;;9.45;83.18;98683.13;7391166;19;19923;-74
2023/04/17 02:11:30;;;;;;;23.70;15.57;;;;;;;9.44;82.98;98686.75;7383437;19;19953;-74
2023/04/17 02:13:56;;;;;;;24.77;14.40;;;;;;;9.44;82.95;98687.56;7388111;19;19918;-74
2023/04/17 02:16:23;;;;;;;24.00;13.93;;;;;;;9.43;83.05;98687.72;7386795;19;19922;-74
2023/04/17 02:18:51;;;;;;;24.80;13.90;;;;;;;9.39;83.00;98689.78;7387330;19;19910;-74
2023/04/17 02:21:18;;;;;;;25.05;13.95;;;;;;;9.40;83.16;98682.69;7383208;19;19914;-74
2023/04/17 02:23:45;;;;;;;28.98;15.20;;;;;;;9.40;82.83;98682.69;7385497;19;19922;-74
2023/04/17 02:26:12;;;;;;;27.67;14.95;;;;;;;9.38;83.15;98684.69;7391035;19;19919;-74
2023/04/17 02:28:38;;;;;;;30.85;15.40;;;;;;;9.35;83.13;98685.78;7386101;19;19952;-74
2023/04/17 02:31:07;;;;;;;26.25;15.45;;;;;;;9.41;82.97;98687.84;7384055;19;20352;-74
2023/04/17 02:33:37;;;;;;;27.65;15.50;;;;;;;9.42;82.89;98691.31;7380529;19;19939;-74
2023/04/17 02:36:05;;;;;;;26.23;14.73;;;;;;;9.38;83.03;98692.59;7386356;19;20328;-74
2023/04/17 02:38:37;;;;;;;28.80;15.75;;;;;;;9.40;83.12;98699.41;7383894;19;20387;-74
2023/04/17 02:41:05;;;;;;;27.00;15.18;;;;;;;9.42;83.12;98686.03;7387595;19;19911;-74
2023/04/17 02:43:32;;;;;;;27.85;14.15;;;;;;;9.43;82.98;98691.19;7382697;19;19921;-74
2023/04/17 02:46:00;;;;;;;26.02;13.43;;;;;;;9.44;83.05;98686.75;7384646;19;19955;-74
2023/04/17 02:48:27;;;;;;;29.33;15.45;;;;;;;9.47;83.04;98690.91;7384263;19;20344;-74
2023/04/17 02:50:54;;;;;;;27.92;15.60;;;;;;;9.41;82.99;98685.22;7382747;19;19957;-74
2023/04/17 02:53:21;;;;;;;26.75;17.27;;;;;;;9.42;83.11;98686.03;7383195;19;19926;-74
2023/04/17 02:55:48;;;;;;;25.50;14.70;;;;;;;9.43;83.12;98680.63;7384232;19;19930;-74
2023/04/17 02:58:17;;;;;;;28.35;15.30;;;;;;;9.45;83.05;98689.25;7385440;19;19922;-74
2023/04/17 03:00:44;;;;;;;27.15;17.05;;;;;;;9.45;83.01;98693.69;7378232;19;20306;-74
2023/04/17 03:03:14;;;;;;;26.23;15.80;;;;;;;9.43;83.37;98687.72;7382254;19;19918;-74
2023/04/17 03:05:42;;;;;;;30.88;15.75;;;;;;;9.45;83.32;98689.25;7379043;19;19922;-74
2023/04/17 03:08:09;;;;;;;25.05;13.63;;;;;;;9.46;83.22;98687.44;7386106;19;19944;-74
2023/04/17 03:10:43;;;;;;;24.02;15.82;;;;;;;9.45;83.14;98683.13;7378115;19;19964;-74
2023/04/17 03:13:10;;;;;;;29.35;14.48;;;;;;;9.49;83.27;98688.97;7386919;19;19935;-74
2023/04/17 03:15:36;;;;;;;25.63;14.00;;;;;;;9.50;83.06;98690.63;7386091;19;19951;-74
2023/04/17 03:18:03;;;;;;;26.85;13.88;;;;;;;9.52;83.04;98686.03;7381232;19;19927;-74
2023/04/17 03:20:30;;;;;;;27.48;15.48;;;;;;;9.52;83.15;98689.50;7377214;19;19918;-74
2023/04/17 03:22:57;;;;;;;28.30;15.73;;;;;;;9.49;83.24;98687.16;7384568;19;19951;-74
2023/04/17 03:25:24;;;;;;;29.52;15.70;;;;;;;9.50;83.07;98688.81;7382719;19;19918;-74
2023/04/17 03:27:51;;;;;;;29.55;16.20;;;;;;;9.49;83.14;98684.50;7381870;19;19922;-74
2023/04/17 03:30:22;;;;;;;24.90;13.65;;;;;;;9.49;83.17;98687.16;7385700;19;19947;-74
2023/04/17 03:32:50;;;;;;;24.83;14.05;;;;;;;9.47;83.19;98688.28;7380878;19;19918;-74
2023/04/17 03:35:17;;;;;;;27.45;16.17;;;;;;;9.47;83.09;98693.56;7380235;19;20300;-74
2023/04/17 03:37:44;;;;;;;27.90;15.10;;;;;;;9.45;83.23;98694.53;7376534;19;19915;-73
2023/04/17 03:40:12;;;;;;;32.80;17.00;;;;;;;9.37;83.29;98693.56;7383310;19;19921;-73
2023/04/17 03:42:38;;;;;;;29.88;15.65;;;;;;;9.44;83.09;98692.03;7380696;19;19922;-74
2023/04/17 03:45:06;;;;;;;31.10;17.10;;;;;;;9.43;83.15;98695.66;7380684;19;19925;-74
2023/04/17 03:47:33;;;;;;;34.58;16.73;;;;;;;9.40;83.27;98696.75;7378345;19;19934;-74
2023/04/17 03:49:59;;;;;;;32.42;17.40;;;;;;;9.39;83.39;98697.72;7376933;19;19919;-73
2023/04/17 03:52:31;;;;;;;31.35;17.30;;;;;;;9.37;83.58;98699.69;7377106;19;20508;-74
2023/04/17 03:54:58;;;;;;;31.73;16.33;;;;;;;9.39;83.36;98696.91;7385206;19;19944;-74
2023/04/17 03:57:25;;;;;;;28.52;15.73;;;;;;;9.40;83.31;98694.13;7380562;19;19942;-74
2023/04/17 03:59:52;;;;;;;30.10;16.15;;;;;;;9.41;83.05;98693.13;7379450;19;20849;-74
2023/04/17 04:02:19;;;;;;;31.05;16.70;;;;;;;9.42;83.19;98704.53;7384884;19;19924;-73
2023/04/17 04:04:49;;;;;;;29.00;17.45;;;;;;;9.44;83.15;98699.94;7378612;19;19925;-74
2023/04/17 04:07:16;;;;;;;33.95;16.95;;;;;;;9.42;83.32;98699.25;7380565;19;19915;-74
2023/04/17 04:09:43;;;;;;;28.98;15.35;;;;;;;9.40;83.18;98701.19;7385273;19;23021;-74
2023/04/17 04:12:10;;;;;;;33.97;17.60;;;;;;;9.30;83.30;98701.22;7382279;19;19923;-74
2023/04/17 04:14:39;;;;;;;29.85;16.08;;;;;;;9.37;83.23;98702.34;7381164;19;19922;-74
2023/04/17 04:17:08;;;;;;;31.60;18.10;;;;;;;9.31;83.28;98702.88;7383009;19;20383;-75
2023/04/17 04:19:36;;;;;;;31.35;16.40;;;;;;;9.35;83.15;98700.81;7381279;19;19984;-74
2023/04/17 04:22:03;;;;;;;37.40;17.58;;;;;;;9.31;83.46;98702.03;7379742;19;19947;-74
2023/04/17 04:24:39;;;;;;;30.60;16.17;;;;;;;9.31;83.25;98704.69;7377639;19;19918;-74
2023/04/17 04:27:06;;;;;;;32.25;16.80;;;;;;;9.30;83.32;98708.31;7381224;19;19942;-74
2023/04/17 04:29:36;;;;;;;27.80;15.70;;;;;;;9.34;83.24;98709.69;7382480;19;20391;-74
2023/04/17 04:32:08;;;;;;;35.38;18.75;;;;;;;9.34;83.06;98712.31;7375411;19;19926;-74
2023/04/17 04:34:40;;;;;;;32.65;16.13;;;;;;;9.33;83.24;98711.50;7373208;19;20483;-73
2023/04/17 04:37:07;;;;;;;32.15;17.38;;;;;;;9.35;83.15;98708.72;7370083;19;19957;-74
2023/04/17 04:39:38;;;;;;;33.10;16.23;;;;;;;9.34;83.51;98712.31;7376202;19;20343;-74
2023/04/17 04:42:08;;;;;;;35.35;20.17;;;;;;;9.30;83.53;98717.06;7373994;19;20259;-74
2023/04/17 04:44:57;;;;;;;30.10;17.42;;;;;;;9.34;83.41;98713.16;7379428;19;20027;-74
2023/04/17 04:47:27;;;;;;;31.45;16.48;;;;;;;9.35;83.33;98708.72;7375695;19;19929;-74
2023/04/17 04:49:54;;;;;;;33.40;18.38;;;;;;;9.28;83.54;98713.72;7380744;19;19929;-74
2023/04/17 04:52:21;;;;;;;32.45;18.08;;;;;;;9.31;83.45;98720.53;7381599;19;19919;-74
2023/04/17 04:54:52;;;;;;;;;;;;;;;9.34;83.27;98717.59;7381159;19;19918;-74
2023/04/17 04:57:19;;;;;;;38.55;19.25;;;;;;;9.29;83.60;98719.81;7380626;19;20714;-74
2023/04/17 04:59:47;;;;;;;35.05;17.60;;;;;;;9.31;83.54;98721.34;7379257;19;19926;-74
2023/04/17 05:02:28;;;;;;;31.90;16.88;;;;;;;9.38;83.49;98725.09;7372799;19;19942;-75
2023/04/17 05:04:56;;;;;;;35.25;18.15;;;;;;;9.40;83.40;98727.59;7375329;19;19918;-74
2023/04/17 05:07:23;;;;;;;33.45;18.50;;;;;;;9.37;83.56;98726.09;7379439;19;19921;-74
2023/04/17 05:09:50;;;;;;;34.83;18.27;;;;;;;9.39;83.35;98732.06;7374004;19;19915;-74
2023/04/17 05:12:17;;;;;;;36.35;17.95;;;;;;;9.42;83.33;98731.75;7376536;19;20595;-74
2023/04/17 05:14:44;;;;;;;34.17;16.65;;;;;;;9.41;83.36;98737.19;7378325;19;19934;-74
2023/04/17 05:17:11;;;;;;;35.47;18.48;;;;;;;9.39;83.39;98736.50;7378771;19;19990;-74
2023/04/17 05:19:38;;;;;;;34.58;18.15;;;;;;;9.36;83.40;98734.97;7380592;19;20351;-74
2023/04/17 05:22:07;;;;;;;34.17;18.17;;;;;;;9.34;83.74;98729.00;7376988;19;19922;-74
2023/04/17 05:24:43;;;;;;;33.63;17.45;;;;;;;9.35;83.46;98733.31;7371647;19;19933;-74
2023/04/17 05:27:10;;;;;;;33.17;17.92;;;;;;;9.39;83.53;98736.50;7375364;19;20037;-73
2023/04/17 05:29:37;;;;;;;31.90;17.20;;;;;;;9.39;83.53;98739.13;7368684;19;19918;-74
2023/04/17 05:32:04;;;;;;;34.25;19.20;;;;;;;9.41;83.40;98739.84;7375460;19;19930;-74
2023/04/17 05:34:57;;;;;;;35.08;17.23;;;;;;;9.42;83.70;98737.03;7377701;19;19945;-73
2023/04/17 05:37:26;;;;;;;31.95;18.10;;;;;;;9.40;83.67;98743.44;7380100;19;19926;-73
2023/04/17 05:39:54;;;;;;;38.45;18.70;;;;;;;9.48;83.48;98740.97;7381895;19;20395;-74
2023/04/17 05:42:21;;;;;;;30.38;17.52;;;;;;;9.52;83.48;98741.50;7379666;19;19922;-74
2023/04/17 05:44:48;;;;;;;36.03;20.02;;;;;;;9.44;83.50;98743.03;7373990;19;21092;-73
2023/04/17 05:47:14;;;;;;;32.30;17.02;;;;;;;9.42;83.74;98742.31;7371484;19;19914;-73
2023/04/17 05:49:42;;;;;;;34.60;18.73;;;;;;;9.43;83.86;98744.00;7376885;19;19918;-74
2023/04/17 05:52:09;;;;;;;32.67;18.50;;;;;;;9.49;83.67;98747.91;7376694;19;19930;-73
2023/04/17 05:54:41;;;;;;;29.58;17.42;;;;;;;9.52;83.71;98742.34;7374867;19;19926;-74
2023/04/17 05:57:07;;;;;;;32.28;16.67;;;;;;;9.43;83.96;98745.81;7373554;19;19990;-74
2023/04/17 05:59:35;;;;;;;32.00;17.00;;;;;;;9.52;83.96;98747.63;7377116;19;19999;-74
2023/04/17 06:02:03;;;;;;;33.45;16.85;;;;;;;9.58;83.78;98747.03;7376546;19;19922;-74
2023/04/17 06:04:32;;;;;;;32.40;19.05;;;;;;;9.56;83.82;98748.19;7377119;19;20281;-74
2023/04/17 06:07:01;;;;;;;33.88;17.58;;;;;;;9.62;83.75;98747.63;7381050;19;19922;-74
2023/04/17 06:09:29;;;;;;;34.67;17.95;;;;;;;9.58;83.85;98743.56;7380738;19;19943;-74
2023/04/17 06:11:56;;;;;;;33.15;17.73;;;;;;;9.54;84.01;98745.69;7372541;19;20494;-74
2023/04/17 06:14:22;;;;;;;29.70;15.43;;;;;;;9.00;86.09;98747.03;7374970;19;19936;-74
2023/04/17 06:16:49;;;;;;;32.78;18.13;;;;;;;8.78;87.87;98745.47;7376260;19;19926;-74
2023/04/17 06:19:16;;;;;;;31.23;17.33;;;;;;;8.75;88.26;98751.84;7379723;19;19922;-74
2023/04/17 06:21:44;;;;;;;33.15;15.93;;;;;;;8.70;88.54;98755.84;7375858;19;19939;-74
2023/04/17 06:24:10;;;;;;;30.08;16.63;;;;;;;9.33;86.60;98760.84;7384359;19;20336;-74
2023/04/17 06:26:43;;;;;;;29.70;17.13;;;;;;;9.48;84.92;98764.72;7384465;19;20782;-74
2023/04/17 06:29:11;;;;;;;29.50;16.77;;;;;;;9.65;84.36;98761.38;7382844;19;21019;-73
2023/04/17 06:31:39;;;;;;;29.58;16.80;;;;;;;9.71;84.28;98759.97;7378279;19;19919;-74
2023/04/17 06:34:06;;;;;;;31.48;15.88;;;;;;;9.72;84.02;98752.91;7384977;19;19921;-74
2023/04/17 06:36:37;;;;;;;28.92;15.77;;;;;;;9.76;84.09;98759.56;7385078;19;19927;-74
2023/04/17 06:39:05;;;;;;;32.25;16.42;;;;;;;9.82;83.87;98759.84;7383822;19;19919;-74
2023/04/17 06:41:32;;;;;;;31.40;15.88;;;;;;;9.80;83.98;98763.59;7381645;19;22218;-73
2023/04/17 06:43:59;;;;;;;30.50;17.70;;;;;;;9.77;83.86;98762.06;7375095;19;20286;-74
2023/04/17 06:46:42;;;;;;;30.85;16.42;;;;;;;9.74;84.05;98765.00;7379800;19;19926;-74
2023/04/17 06:49:08;;;;;;;31.88;18.73;;;;;;;9.74;83.82;98772.94;7384269;19;20322;-74
2023/04/17 06:51:35;;;;;;;33.33;18.20;;;;;;;9.77;83.88;98766.50;7382632;19;19922;-74
2023/04/17 06:54:02;;;;;;;29.73;15.60;;;;;;;9.73;83.98;98771.25;7389348;19;20335;-74
2023/04/17 06:56:29;;;;;;;30.85;15.52;;;;;;;9.84;83.87;98781.66;7390950;19;20050;-74
2023/04/17 06:58:56;;;;;;;28.98;16.13;;;;;;;9.82;83.91;98775.69;7387276;19;19955;-74
2023/04/17 07:01:23;;;;;;;28.90;15.98;;;;;;;9.82;83.88;98769.56;7382266;19;20332;-74
2023/04/17 07:03:50;;;;;;;28.20;15.30;;;;;;;9.82;83.73;98775.69;7385928;19;19918;-74
2023/04/17 07:06:18;;;;;;;25.98;16.40;;;;;;;9.78;83.62;98776.94;7387974;19;19918;-74
2023/04/17 07:08:45;;;;;;;29.92;15.95;;;;;;;9.92;83.67;98780.94;7388016;19;19914;-74
2023/04/17 07:11:11;;;;;;;31.00;15.77;;;;;;;9.94;83.66;98779.00;7385529;19;19918;-74
2023/04/17 07:13:38;;;;;;;29.65;15.75;;;;;;;9.97;83.91;98783.16;7382385;19;19918;-74
2023/04/17 07:16:05;;;;;;;28.63;15.63;;;;;;;10.01;83.85;98782.75;7387429;19;19922;-74
2023/04/17 07:18:32;;;;;;;28.63;16.02;;;;;;;9.97;83.84;98786.63;7382141;19;19918;-74
2023/04/17 07:20:59;;;;;;;27.27;14.48;;;;;;;10.06;83.97;98793.75;7380345;19;19926;-74
2023/04/17 07:23:26;;;;;;;31.70;15.20;;;;;;;10.15;83.94;98788.56;7390175;19;19949;-74
2023/04/17 07:25:53;;;;;;;29.38;15.55;;;;;;;10.20;84.29;98786.34;7385533;19;19943;-73
2023/04/17 07:28:20;;;;;;;33.00;15.90;;;;;;;10.18;84.27;98785.63;7387205;19;19959;-73
2023/04/17 07:30:47;;;;;;;28.27;15.13;;;;;;;10.25;83.93;98792.03;7385645;19;19929;-73
2023/04/17 07:33:13;;;;;;;28.20;16.02;;;;;;;10.22;83.80;98789.66;7383113;19;19922;-73
2023/04/17 07:35:41;;;;;;;27.75;17.08;;;;;;;10.30;83.83;98790.66;7380101;19;19957;-72
2023/04/17 07:38:08;;;;;;;28.80;15.13;;;;;;;10.32;83.92;98793.13;7385476;19;19918;-73
2023/04/17 07:40:35;;;;;;;25.30;14.32;;;;;;;10.32;84.04;98796.63;7386639;19;19923;-73
2023/04/17 07:43:02;;;;;;;29.45;14.43;;;;;;;10.37;83.62;98795.34;7386727;19;19918;-73
2023/04/17 07:45:29;;;;;;;26.85;15.82;;;;;;;10.33;83.50;98795.63;7385718;19;19993;-72
2023/04/17 07:47:56;;;;;;;27.20;14.63;;;;;;;10.38;83.53;98792.56;7380901;19;19914;-73
2023/04/17 07:50:23;;;;;;;27.00;14.85;;;;;;;10.42;83.51;98799.22;7379816;19;19943;-73
2023/04/17 07:52:50;;;;;;;26.40;14.70;;;;;;;10.42;83.49;98799.22;7380616;19;19922;-73
2023/04/17 07:55:17;;;;;;;29.38;15.85;;;;;;;10.37;83.61;98796.19;7385809;19;20438;-73
2023/04/17 07:57:45;;;;;;;24.52;12.95;;;;;;;10.50;83.48;98801.97;7384286;19;19914;-73
2023/04/17 08:00:13;;;;;;;24.35;14.52;;;;;;;10.58;83.13;98805.72;7386316;19;19971;-73
2023/04/17 08:02:41;;;;;;;25.15;14.65;;;;;;;10.56;83.56;98805.88;7387043;19;19931;-73
2023/04/17 08:05:08;;;;;;;23.23;13.63;;;;;;;10.53;83.31;98803.50;7382446;19;19922;-73
2023/04/17 08:07:36;;;;;;;22.27;13.30;;;;;;;10.49;83.21;98800.31;7383086;19;19959;-73
2023/04/17 08:10:04;;;;;;;26.65;14.45;;;;;;;10.53;83.30;98800.84;7383742;19;19925;-73
2023/04/17 08:12:30;;;;;;;25.80;15.70;;;;;;;10.58;83.48;98811.84;7388074;19;20347;-73
2023/04/17 08:14:57;;;;;;;28.38;16.48;;;;;;;10.60;83.39;98807.25;7384702;19;20254;-73
2023/04/17 08:17:24;;;;;;;25.15;15.15;;;;;;;10.57;83.33;98807.53;7387973;19;20268;-73
2023/04/17 08:19:57;;;;;;;25.77;13.07;;;;;;;10.65;83.25;98817.41;7382920;19;19923;-73
2023/04/17 08:22:24;;;;;;;29.85;14.73;;;;;;;10.60;83.47;98811.72;7387217;19;19938;-73
2023/04/17 08:24:56;;;;;;;26.67;13.90;;;;;;;10.57;83.21;98812.84;7383497;19;20328;-73
2023/04/17 08:27:24;;;;;;;23.73;13.18;;;;;;;10.59;83.41;98818.00;7384591;19;19921;-73
2023/04/17 08:29:52;;;;;;;21.25;12.60;;;;;;;10.62;83.11;98820.34;7384202;19;19972;-73
2023/04/17 08:32:20;;;;;;;16.27;9.75;;;;;;;10.58;83.11;98819.78;7382205;19;19914;-73
2023/04/17 08:34:47;;;;;;;16.50;9.55;;;;;;;10.60;83.08;98817.81;7382470;19;20508;-73
2023/04/17 08:37:13;;;;;;;16.02;9.82;;;;;;;10.69;82.97;98819.63;7379539;19;19923;-73
2023/04/17 08:39:40;;;;;;;14.48;8.73;;;;;;;10.82;83.15;98815.78;7380775;19;19918;-73
2023/04/17 08:42:09;;;;;;;14.52;9.02;;;;;;;10.89;83.39;98820.34;7379849;19;19942;-73
2023/04/17 08:44:42;;;;;;;15.93;8.93;;;;;;;11.03;83.23;98821.66;7383409;19;19974;-73
2023/04/17 08:47:08;;;;;;;16.98;12.90;;;;;;;11.01;83.06;98825.47;7386178;19;20244;-73
2023/04/17 08:49:36;;;;;;;14.48;8.95;;;;;;;11.09;83.02;98823.75;7381217;19;19929;-74
2023/04/17 08:52:04;;;;;;;14.85;8.80;;;;;;;11.22;83.16;98818.09;7379579;19;19915;-74
2023/04/17 08:54:33;;;;;;;12.27;8.13;;;;;;;11.33;83.07;98823.16;7383224;19;19914;-74
2023/04/17 08:57:04;;;;;;;13.23;8.77;;;;;;;11.39;82.67;98824.38;7379444;19;19918;-74
2023/04/17 08:59:32;;;;;;;11.85;7.72;;;;;;;11.32;82.55;98818.88;7384535;19;19917;-73
2023/04/17 09:02:06;;;;;;;14.77;10.93;;;;;;;11.31;82.57;98827.78;7381213;19;20281;-75
2023/04/17 09:04:41;;;;;;;14.20;9.10;;;;;;;11.27;82.26;98828.22;7383176;19;19918;-74
2023/04/17 09:07:10;;;;;;;16.25;8.73;;;;;;;11.37;82.28;98826.34;7382895;19;19915;-74
2023/04/17 09:09:46;;;;;;;15.27;9.48;;;;;;;11.35;82.28;98829.16;7383396;19;19922;-74
2023/04/17 09:12:13;;;;;;;12.73;8.48;;;;;;;11.37;82.17;98827.19;7383716;19;19922;-74
2023/04/17 09:14:40;;;;;;;17.33;9.10;;;;;;;11.48;82.02;98830.59;7379662;19;19939;-75
2023/04/17 09:17:07;;;;;;;13.60;8.30;;;;;;;11.60;82.31;98826.75;7383217;19;19922;-74
2023/04/17 09:19:33;;;;;;;18.42;8.93;;;;;;;11.59;82.04;98823.28;7383613;19;19926;-74
2023/04/17 09:22:17;;;;;;;13.35;7.93;;;;;;;11.65;81.82;98820.00;7380065;19;19923;-74
2023/04/17 09:24:44;;;;;;;11.77;7.88;;;;;;;11.61;81.22;98828.41;7380697;19;19971;-74
2023/04/17 09:27:25;;;;;;;11.68;6.60;;;;;;;11.58;81.78;98826.06;7380222;19;19914;-74
2023/04/17 09:30:03;;;;;;;13.10;8.27;;;;;;;11.65;81.76;98830.59;7380720;19;19978;-75
2023/04/17 09:32:32;;;;;;;14.15;9.35;;;;;;;11.73;81.83;98834.31;7380141;19;20613;-74
2023/04/17 09:35:01;;;;;;;12.60;8.02;;;;;;;11.68;81.73;98828.66;7379099;19;19957;-74
2023/04/17 09:37:50;;;;;;;13.10;8.30;;;;;;;11.68;81.40;98839.25;7384161;19;20328;-74
2023/04/17 09:40:17;;;;;;;13.48;8.10;;;;;;;11.73;81.55;98834.31;7383185;19;19946;-74
2023/04/17 09:43:02;;;;;;;10.98;8.00;;;;;;;11.66;81.00;98831.44;7380668;19;19948;-75
2023/04/17 09:45:35;;;;;;;12.98;9.93;;;;;;;11.63;81.15;98831.75;7382890;19;20221;-74
2023/04/17 09:48:05;;;;;;;10.68;6.68;;;;;;;11.64;80.77;98833.44;7380096;19;19918;-74
2023/04/17 09:50:33;;;;;;;11.68;7.72;;;;;;;11.59;80.43;98838.34;7380002;19;20700;-74
2023/04/17 09:53:03;;;;;;;12.63;7.63;;;;;;;11.59;80.58;98843.66;7381534;19;19929;-74
2023/04/17 09:55:31;;;;;;;12.10;7.57;;;;;;;11.57;80.53;98832.34;7383356;19;20812;-74
2023/04/17 09:58:00;;;;;;;14.18;8.30;;;;;;;11.53;80.65;98839.78;7383393;19;19923;-75
2023/04/17 10:00:28;;;;;;;16.02;8.02;;;;;;;11.51;80.18;98839.09;7389131;19;19918;-74
2023/04/17 10:02:56;;;;;;;12.07;7.72;;;;;;;11.56;80.24;98838.66;7388731;19;19922;-74
2023/04/17 10:05:28;;;;;;;10.73;7.07;;;;;;;11.61;80.69;98836.34;7386222;19;19922;-74
2023/04/17 10:07:55;;;;;;;12.07;7.63;;;;;;;11.68;80.92;98829.47;7388767;19;19926;-74
2023/04/17 10:10:29;;;;;;;11.95;7.07;;;;;;;11.83;81.38;98833.25;7388283;19;19934;-74
2023/04/17 10:12:59;;;;;;;12.55;7.40;;;;;;;12.07;81.47;98829.19;7386023;19;20514;-74
2023/04/17 10:15:26;;;;;;;12.63;8.70;;;;;;;12.38;81.89;98832.22;7389097;19;19930;-74
2023/04/17 10:17:55;;;;;;;10.40;7.60;;;;;;;12.70;81.78;98826.25;7386888;19;19922;-73
2023/04/17 10:20:22;;;;;;;10.32;7.45;;;;;;;12.91;81.12;98819.72;7380987;19;19934;-76
2023/04/17 10:22:53;;;;;;;11.07;7.43;;;;;;;13.15;80.92;98819.81;7386267;19;19949;-73
2023/04/17 10:25:25;;;;;;;11.18;7.07;;;;;;;13.23;79.28;98816.34;7383556;19;19955;-72
2023/04/17 10:27:58;;;;;;;10.52;6.43;;;;;;;13.30;78.55;98814.75;7385767;19;19922;-73
2023/04/17 10:30:48;;;;;;;9.18;7.13;;;;;;;13.46;78.22;98813.94;7387732;19;20292;-73
2023/04/17 10:33:15;;;;;;;8.40;5.93;;;;;;;13.39;76.98;98803.13;7388303;19;19914;-72
2023/04/17 10:35:42;;;;;;;9.40;5.70;;;;;;;13.50;76.94;98817.94;7386759;19;19915;-72
2023/04/17 10:38:10;;;;;;;8.88;5.90;;;;;;;13.56;76.45;98806.66;7389305;19;19918;-72
2023/04/17 10:40:37;;;;;;;6.97;4.65;;;;;;;13.54;76.14;98805.16;7386973;19;19922;-72
2023/04/17 10:43:18;;;;;;;7.88;5.28;;;;;;;13.46;74.25;98805.16;7386642;19;19943;-72
2023/04/17 10:46:13;;;;;;;7.20;5.40;;;;;;;13.50;75.56;98801.16;7385087;19;19930;-72
2023/04/17 10:48:49;;;;;;;7.85;5.18;;;;;;;13.62;74.26;98805.16;7386722;19;19926;-72
2023/04/17 10:51:22;;;;;;;6.35;5.20;;;;;;;13.69;75.18;98800.84;7384398;19;19950;-72
2023/04/17 10:53:53;;;;;;;6.90;5.47;;;;;;;13.89;74.67;98797.88;7385727;19;19936;-73
2023/04/17 10:56:45;;;;;;;7.20;5.03;;;;;;;14.11;73.49;98788.38;7384417;19;19982;-73
2023/04/17 10:59:14;;;;;;;6.05;4.53;;;;;;;14.14;72.73;98796.88;7389879;19;19926;-72
2023/04/17 11:01:48;;;;;;;5.75;4.68;;;;;;;14.29;72.23;98789.00;7379161;19;19927;-73
2023/04/17 11:04:23;;;;;;;6.22;4.35;;;;;;;14.27;70.92;98785.69;7384934;19;19917;-73
2023/04/17 11:06:51;;;;;;;4.78;3.78;;;;;;;14.48;71.71;98783.31;7384339;19;19923;-73
2023/04/17 11:09:23;;;;;;;6.13;4.30;;;;;;;14.88;73.14;98762.91;7383263;19;19924;-73
2023/04/17 11:11:50;;;;;;;5.35;4.47;;;;;;;14.78;69.61;98780.09;7382379;19;19982;-72
2023/04/17 11:14:21;;;;;;;5.57;4.22;;;;;;;14.63;70.10;98785.28;7382851;19;20387;-73
2023/04/17 11:16:49;;;;;;;5.07;3.80;;;;;;;14.89;72.20;98780.53;7386934;19;20324;-73
2023/04/17 11:19:18;;;;;;;6.85;5.03;;;;;;;15.06;69.61;98777.78;7389131;19;19918;-73
2023/04/17 11:21:47;;;;;;;6.05;4.53;;;;;;;15.05;67.28;98776.13;7387039;19;20019;-72
2023/04/17 11:24:22;;;;;;;6.35;4.35;;;;;;;14.97;67.80;98773.50;7392629;19;19918;-72
2023/04/17 11:26:49;;;;;;;4.50;3.72;;;;;;;15.06;68.96;98778.63;7386178;19;19926;-72
2023/04/17 11:29:16;;;;;;;8.48;4.65;;;;;;;14.98;68.38;98778.69;7386013;19;19935;-72
2023/04/17 11:31:44;;;;;;;5.00;4.05;;;;;;;14.76;68.64;98774.91;7383050;19;19934;-73